createdAt,value
2023-03-13T00:01:46.112Z,12.77
2023-03-13T00:04:12.489Z,10.65
2023-03-13T00:06:39.822Z,8.02
2023-03-13T00:09:08.663Z,11.38
2023-03-13T00:11:35.472Z,12.88
2023-03-13T00:14:04.109Z,14.73
2023-03-13T00:16:31.117Z,13.07
2023-03-13T00:18:58.524Z,10.57
2023-03-13T00:21:28.121Z,7.22
2023-03-13T00:23:55.514Z,15.27
2023-03-13T00:26:24.209Z,18.83
2023-03-13T00:28:51.515Z,13.52
2023-03-13T00:31:22.344Z,11.85
2023-03-13T00:33:52.071Z,10.48
2023-03-13T00:36:26.052Z,13.02
2023-03-13T00:38:53.737Z,10.30
2023-03-13T00:41:22.457Z,11.88
2023-03-13T00:43:49.439Z,10.68
2023-03-13T00:46:18.125Z,9.65
2023-03-13T00:48:44.706Z,13.27
2023-03-13T00:51:11.813Z,7.40
2023-03-13T00:53:38.191Z,14.88
2023-03-13T00:56:07.831Z,12.75
2023-03-13T00:58:36.685Z,10.65
2023-03-13T01:01:34.156Z,11.18
2023-03-13T01:04:29.271Z,10.73
2023-03-13T01:06:58.419Z,9.55
2023-03-13T01:09:24.820Z,13.50
2023-03-13T01:11:51.122Z,9.88
2023-03-13T01:14:20.295Z,9.98
2023-03-13T01:16:47.312Z,14.77
2023-03-13T01:19:16.205Z,14.35
2023-03-13T01:21:44.416Z,13.43
2023-03-13T01:24:11.182Z,12.73
2023-03-13T01:26:37.596Z,10.20
2023-03-13T01:29:04.155Z,14.27
2023-03-13T01:31:34.996Z,9.98
2023-03-13T01:34:04.361Z,8.98
2023-03-13T01:36:30.764Z,12.43
2023-03-13T01:38:59.715Z,8.80
2023-03-13T01:41:28.943Z,6.63
2023-03-13T01:43:55.898Z,6.82
2023-03-13T01:46:30.170Z,6.80
2023-03-13T01:49:07.683Z,17.08
2023-03-13T01:51:45.545Z,9.02
2023-03-13T01:54:16.897Z,7.93
2023-03-13T01:56:50.859Z,7.63
2023-03-13T01:59:22.803Z,5.28
2023-03-13T02:01:52.612Z,7.20
2023-03-13T02:04:21.968Z,8.27
2023-03-13T02:06:52.516Z,9.98
2023-03-13T02:09:24.381Z,15.20
2023-03-13T02:12:00.986Z,16.00
2023-03-13T02:14:30.710Z,9.88
2023-03-13T02:16:57.149Z,8.80
2023-03-13T02:19:39.505Z,9.43
2023-03-13T02:22:27.918Z,14.75
2023-03-13T02:25:09.953Z,9.70
2023-03-13T02:27:36.737Z,12.48
2023-03-13T02:30:05.150Z,10.73
2023-03-13T02:32:32.157Z,10.32
2023-03-13T02:35:05.346Z,8.85
2023-03-13T02:37:33.218Z,10.32
2023-03-13T02:40:05.172Z,8.68
2023-03-13T02:42:31.824Z,10.40
2023-03-13T02:44:58.266Z,11.55
2023-03-13T02:47:25.516Z,8.65
2023-03-13T02:49:51.903Z,10.77
2023-03-13T02:52:24.487Z,11.38
2023-03-13T02:54:55.000Z,12.85
2023-03-13T02:57:21.708Z,9.85
2023-03-13T02:59:48.085Z,7.20
2023-03-13T03:02:14.444Z,11.00
2023-03-13T03:04:41.347Z,6.65
2023-03-13T03:07:07.741Z,7.30
2023-03-13T03:09:34.114Z,7.90
2023-03-13T03:12:00.477Z,5.07
2023-03-13T03:14:26.983Z,7.78
2023-03-13T03:16:53.389Z,15.50
2023-03-13T03:19:19.793Z,9.07
2023-03-13T03:21:46.397Z,17.98
2023-03-13T03:24:12.816Z,8.95
2023-03-13T03:26:39.198Z,8.30
2023-03-13T03:29:05.618Z,9.85
2023-03-13T03:31:31.967Z,8.40
2023-03-13T03:33:58.378Z,4.97
2023-03-13T03:36:25.127Z,8.57
2023-03-13T03:38:52.066Z,12.10
2023-03-13T03:41:19.266Z,11.98
2023-03-13T03:43:47.297Z,6.80
2023-03-13T03:46:14.833Z,8.65
2023-03-13T03:48:41.249Z,10.05
2023-03-13T03:51:07.715Z,9.93
2023-03-13T03:53:34.148Z,13.23
2023-03-13T03:56:01.560Z,8.07
2023-03-13T03:58:27.912Z,7.00
2023-03-13T04:00:57.027Z,5.88
2023-03-13T04:03:24.361Z,8.30
2023-03-13T04:05:50.793Z,12.02
2023-03-13T04:08:17.186Z,9.82
2023-03-13T04:10:43.613Z,6.00
2023-03-13T04:13:09.946Z,7.75
2023-03-13T04:15:39.241Z,4.85
2023-03-13T04:18:06.003Z,5.78
2023-03-13T04:20:32.869Z,8.40
2023-03-13T04:22:59.224Z,7.68
2023-03-13T04:25:25.922Z,4.82
2023-03-13T04:27:52.306Z,8.20
2023-03-13T04:30:18.882Z,10.40
2023-03-13T04:32:45.334Z,9.18
2023-03-13T04:35:11.820Z,6.18
2023-03-13T04:37:38.180Z,5.57
2023-03-13T04:40:05.194Z,4.10
2023-03-13T04:42:31.524Z,6.72
2023-03-13T04:44:57.809Z,5.28
2023-03-13T04:47:24.223Z,4.65
2023-03-13T04:49:50.581Z,3.97
2023-03-13T04:52:17.021Z,7.28
2023-03-13T04:54:43.434Z,4.53
2023-03-13T04:57:09.782Z,6.32
2023-03-13T04:59:37.263Z,4.63
2023-03-13T05:02:03.749Z,7.43
2023-03-13T05:04:30.123Z,5.95
2023-03-13T05:06:56.525Z,5.72
2023-03-13T05:09:22.858Z,5.00
2023-03-13T05:11:50.645Z,5.50
2023-03-13T05:14:17.110Z,6.07
2023-03-13T05:16:43.425Z,5.07
2023-03-13T05:19:11.725Z,4.15
2023-03-13T05:21:38.096Z,3.65
2023-03-13T05:24:04.742Z,4.63
2023-03-13T05:26:31.053Z,8.82
2023-03-13T05:28:57.357Z,6.07
2023-03-13T05:31:23.832Z,2.25
2023-03-13T05:33:50.254Z,3.58
2023-03-13T05:36:16.702Z,3.75
2023-03-13T05:38:43.039Z,8.57
2023-03-13T05:41:09.409Z,3.88
2023-03-13T05:43:35.763Z,3.92
2023-03-13T05:46:02.149Z,3.40
2023-03-13T05:48:28.502Z,5.28
2023-03-13T05:50:54.794Z,4.05
2023-03-13T05:53:21.221Z,8.13
2023-03-13T05:55:47.548Z,3.50
2023-03-13T05:58:13.931Z,5.15
2023-03-13T06:00:40.274Z,3.08
2023-03-13T06:03:06.615Z,4.70
2023-03-13T06:05:32.972Z,6.43
2023-03-13T06:07:59.319Z,4.13
2023-03-13T06:10:25.671Z,4.80
2023-03-13T06:12:53.784Z,4.90
2023-03-13T06:15:20.272Z,4.22
2023-03-13T06:17:46.624Z,4.05
2023-03-13T06:20:13.153Z,2.92
2023-03-13T06:22:40.194Z,2.80
2023-03-13T06:25:07.147Z,4.57
2023-03-13T06:27:33.431Z,3.08
2023-03-13T06:29:59.753Z,4.68
2023-03-13T06:32:26.190Z,2.20
2023-03-13T06:34:52.573Z,2.80
2023-03-13T06:37:18.952Z,4.60
2023-03-13T06:39:45.361Z,2.47
2023-03-13T06:42:11.766Z,3.40
2023-03-13T06:44:38.133Z,2.60
2023-03-13T06:47:04.695Z,3.28
2023-03-13T06:49:31.149Z,3.47
2023-03-13T06:51:58.789Z,4.20
2023-03-13T06:54:25.243Z,2.03
2023-03-13T06:56:51.622Z,2.63
2023-03-13T06:59:17.965Z,3.28
2023-03-13T07:01:44.382Z,1.67
2023-03-13T07:04:12.946Z,1.65
2023-03-13T07:06:39.613Z,2.20
2023-03-13T07:09:06.054Z,3.00
2023-03-13T07:11:32.433Z,1.70
2023-03-13T07:14:15.291Z,1.92
2023-03-13T07:16:43.226Z,2.03
2023-03-13T07:19:09.879Z,1.30
2023-03-13T07:21:36.519Z,1.30
2023-03-13T07:24:03.179Z,1.65
2023-03-13T07:26:29.937Z,1.60
2023-03-13T07:28:56.569Z,2.70
2023-03-13T07:31:26.249Z,2.63
2023-03-13T07:33:56.319Z,2.10
2023-03-13T07:36:23.252Z,1.58
2023-03-13T07:38:50.854Z,2.53
2023-03-13T07:41:18.406Z,2.17
2023-03-13T07:43:45.550Z,1.90
2023-03-13T07:46:14.686Z,3.47
2023-03-13T07:48:42.919Z,3.65
2023-03-13T07:51:30.294Z,2.60
2023-03-13T07:54:03.543Z,3.28
2023-03-13T07:56:29.883Z,4.40
2023-03-13T07:58:56.312Z,3.92
2023-03-13T08:01:28.432Z,3.72
2023-03-13T08:03:59.635Z,3.72
2023-03-13T08:06:32.580Z,4.03
2023-03-13T08:09:00.150Z,5.07
2023-03-13T08:11:28.444Z,2.67
2023-03-13T08:13:55.971Z,2.55
2023-03-13T08:16:25.507Z,2.30
2023-03-13T08:18:54.432Z,2.63
2023-03-13T08:21:26.623Z,2.45
2023-03-13T08:23:55.224Z,2.60
2023-03-13T08:26:23.641Z,3.75
2023-03-13T08:28:53.879Z,2.50
2023-03-13T08:31:23.098Z,5.20
2023-03-13T08:33:49.794Z,4.88
2023-03-13T08:36:17.826Z,4.30
2023-03-13T08:38:46.247Z,3.63
2023-03-13T08:41:14.872Z,2.92
2023-03-13T08:43:41.515Z,6.32
2023-03-13T08:46:08.053Z,3.90
2023-03-13T08:48:34.437Z,7.25
2023-03-13T08:51:07.134Z,2.47
2023-03-13T08:53:34.699Z,4.47
2023-03-13T08:56:01.268Z,2.55
2023-03-13T08:58:28.449Z,3.15
2023-03-13T09:00:54.828Z,3.15
2023-03-13T09:03:21.238Z,3.15
2023-03-13T09:05:56.006Z,5.63
2023-03-13T09:08:23.049Z,3.13
2023-03-13T09:10:57.633Z,2.40
2023-03-13T09:13:25.745Z,2.13
2023-03-13T09:16:03.806Z,5.85
2023-03-13T09:18:30.622Z,2.72
2023-03-13T09:20:57.006Z,2.30
2023-03-13T09:23:24.302Z,2.88
2023-03-13T09:25:57.362Z,3.42
2023-03-13T09:28:25.708Z,4.18
2023-03-13T09:30:53.680Z,3.97
2023-03-13T09:33:23.762Z,4.75
2023-03-13T09:35:50.986Z,3.63
2023-03-13T09:38:19.475Z,2.63
2023-03-13T09:40:59.861Z,3.17
2023-03-13T09:43:52.599Z,3.03
2023-03-13T09:46:39.718Z,4.05
2023-03-13T09:49:35.647Z,4.32
2023-03-13T09:52:19.104Z,3.58
2023-03-13T09:54:53.753Z,3.95
2023-03-13T09:57:28.533Z,4.45
2023-03-13T10:00:02.179Z,6.53
2023-03-13T10:02:32.251Z,3.20
2023-03-13T10:05:17.729Z,5.10
2023-03-13T10:07:44.152Z,3.78
2023-03-13T10:10:21.333Z,4.85
2023-03-13T10:12:51.301Z,2.88
2023-03-13T10:15:30.562Z,5.20
2023-03-13T10:17:58.898Z,2.72
2023-03-13T10:20:33.454Z,3.97
2023-03-13T10:23:04.955Z,5.63
2023-03-13T10:25:38.235Z,3.75
2023-03-13T10:28:06.284Z,6.35
2023-03-13T10:30:35.443Z,2.95
2023-03-13T10:33:07.814Z,5.38
2023-03-13T10:35:40.745Z,2.63
2023-03-13T10:38:12.951Z,3.40
2023-03-13T10:40:40.250Z,3.03
2023-03-13T10:43:14.992Z,3.03
2023-03-13T10:45:41.643Z,5.43
2023-03-13T10:48:18.410Z,4.30
2023-03-13T10:50:47.479Z,4.25
2023-03-13T10:53:26.581Z,3.22
2023-03-13T10:56:08.912Z,4.03
2023-03-13T10:58:55.992Z,3.92
2023-03-13T11:01:29.101Z,4.72
2023-03-13T11:03:57.205Z,5.10
2023-03-13T11:06:28.231Z,2.28
2023-03-13T11:09:05.478Z,3.08
2023-03-13T11:11:44.002Z,4.05
2023-03-13T11:14:21.050Z,3.20
2023-03-13T11:16:53.206Z,5.15
2023-03-13T11:19:25.502Z,4.68
2023-03-13T11:22:11.725Z,2.30
2023-03-13T11:24:45.984Z,3.88
2023-03-13T11:27:50.938Z,3.58
2023-03-13T11:30:45.099Z,5.32
2023-03-13T11:33:32.296Z,5.28
2023-03-13T11:36:09.210Z,3.55
2023-03-13T11:38:39.722Z,2.53
2023-03-13T11:41:27.800Z,2.58
2023-03-13T11:44:10.449Z,3.92
2023-03-13T11:46:58.650Z,4.38
2023-03-13T11:49:51.816Z,4.05
2023-03-13T11:52:35.509Z,4.45
2023-03-13T11:55:21.038Z,2.22
2023-03-13T11:58:16.566Z,4.53
2023-03-13T12:00:52.176Z,3.35
2023-03-13T12:03:34.677Z,3.00
2023-03-13T12:06:03.450Z,2.15
2023-03-13T12:08:43.581Z,6.13
2023-03-13T12:11:27.635Z,3.22
2023-03-13T12:14:09.703Z,2.85
2023-03-13T12:16:48.076Z,3.03
2023-03-13T12:19:29.634Z,2.60
2023-03-13T12:22:02.260Z,2.78
2023-03-13T12:24:44.183Z,3.58
2023-03-13T12:27:17.689Z,2.97
2023-03-13T12:30:07.307Z,3.33
2023-03-13T12:32:38.544Z,4.00
2023-03-13T12:35:19.663Z,2.92
2023-03-13T12:38:00.281Z,3.15
2023-03-13T12:40:41.267Z,4.75
2023-03-13T12:43:17.756Z,2.35
2023-03-13T12:46:13.310Z,2.47
2023-03-13T12:48:48.688Z,3.75
2023-03-13T12:51:22.080Z,2.03
2023-03-13T12:53:59.367Z,3.42
2023-03-13T12:56:49.432Z,2.33
2023-03-13T12:59:21.824Z,3.85
2023-03-13T13:01:53.411Z,2.22
2023-03-13T13:04:23.512Z,2.83
2023-03-13T13:07:05.781Z,2.50
2023-03-13T13:10:09.766Z,1.90
2023-03-13T13:12:40.562Z,3.17
2023-03-13T13:15:27.772Z,9.73
2023-03-13T13:18:01.430Z,7.35
2023-03-13T13:21:09.692Z,1.90
2023-03-13T13:23:39.139Z,2.95
2023-03-13T13:26:47.611Z,2.15
2023-03-13T13:29:13.994Z,3.17
2023-03-13T13:31:50.773Z,2.05
2023-03-13T13:34:29.954Z,2.83
2023-03-13T13:36:58.007Z,3.35
2023-03-13T13:39:39.458Z,1.92
2023-03-13T13:42:30.706Z,1.88
2023-03-13T13:45:02.837Z,2.35
2023-03-13T13:47:33.614Z,2.80
2023-03-13T13:50:00.867Z,2.92
2023-03-13T13:52:40.699Z,3.33
2023-03-13T13:55:21.955Z,3.40
2023-03-13T13:57:49.669Z,2.65
2023-03-13T14:00:24.816Z,4.85
2023-03-13T14:02:53.680Z,3.30
2023-03-13T14:05:30.280Z,3.33
2023-03-13T14:08:03.186Z,5.97
2023-03-13T14:10:37.811Z,2.40
2023-03-13T14:13:16.746Z,1.92
2023-03-13T14:15:45.815Z,2.78
2023-03-13T14:18:20.984Z,2.67
2023-03-13T14:20:59.870Z,2.22
2023-03-13T14:23:43.916Z,2.63
2023-03-13T14:26:26.575Z,9.32
2023-03-13T14:28:56.063Z,1.92
2023-03-13T14:31:29.872Z,2.25
2023-03-13T14:34:01.616Z,3.60
2023-03-13T14:36:28.580Z,2.10
2023-03-13T14:39:00.050Z,1.92
2023-03-13T14:41:37.691Z,2.45
2023-03-13T14:44:15.063Z,1.75
2023-03-13T14:46:43.437Z,2.13
2023-03-13T14:49:20.969Z,1.95
2023-03-13T14:51:58.836Z,3.28
2023-03-13T14:54:29.098Z,3.17
2023-03-13T14:57:10.374Z,2.50
2023-03-13T14:59:36.790Z,2.63
2023-03-13T15:02:43.170Z,3.55
2023-03-13T15:05:32.581Z,2.10
2023-03-13T15:07:58.990Z,1.45
2023-03-13T15:10:32.221Z,1.83
2023-03-13T15:12:59.050Z,2.30
2023-03-13T15:15:25.657Z,3.22
2023-03-13T15:17:52.029Z,3.03
2023-03-13T15:20:18.551Z,3.72
2023-03-13T15:22:46.376Z,2.60
2023-03-13T15:25:23.426Z,3.70
2023-03-13T15:27:50.769Z,1.45
2023-03-13T15:30:19.030Z,2.05
2023-03-13T15:32:46.833Z,2.13
2023-03-13T15:35:27.510Z,3.15
2023-03-13T15:37:55.013Z,3.80
2023-03-13T15:40:21.565Z,6.18
2023-03-13T15:42:47.920Z,2.80
2023-03-13T15:45:14.279Z,2.65
2023-03-13T15:47:40.682Z,4.47
2023-03-13T15:50:12.892Z,5.55
2023-03-13T15:52:39.394Z,2.78
2023-03-13T15:55:07.938Z,2.83
2023-03-13T15:57:44.076Z,5.88
2023-03-13T16:00:25.132Z,4.47
2023-03-13T16:02:51.544Z,2.75
2023-03-13T16:05:18.239Z,2.40
2023-03-13T16:07:44.733Z,4.13
2023-03-13T16:10:18.310Z,2.80
2023-03-13T16:12:44.767Z,5.00
2023-03-13T16:15:11.432Z,3.20
2023-03-13T16:17:37.845Z,2.88
2023-03-13T16:20:11.616Z,4.47
2023-03-13T16:22:38.014Z,4.30
2023-03-13T16:25:04.804Z,3.40
2023-03-13T16:27:31.129Z,3.80
2023-03-13T16:29:57.524Z,5.53
2023-03-13T16:32:25.496Z,2.30
2023-03-13T16:34:51.995Z,3.13
2023-03-13T16:37:20.498Z,3.13
2023-03-13T16:39:48.087Z,4.35
2023-03-13T16:42:14.502Z,3.70
2023-03-13T16:44:40.910Z,3.15
2023-03-13T16:47:27.932Z,1.85
2023-03-13T16:49:54.837Z,3.75
2023-03-13T16:52:21.243Z,2.60
2023-03-13T16:54:47.719Z,3.03
2023-03-13T16:57:18.572Z,3.00
2023-03-13T16:59:44.973Z,2.53
2023-03-13T17:02:16.418Z,3.45
2023-03-13T17:04:44.859Z,2.97
2023-03-13T17:07:23.497Z,2.70
2023-03-13T17:09:51.220Z,4.35
2023-03-13T17:12:18.843Z,2.97
2023-03-13T17:14:45.609Z,2.05
2023-03-13T17:17:17.703Z,2.70
2023-03-13T17:19:44.979Z,2.50
2023-03-13T17:22:17.611Z,2.42
2023-03-13T17:24:44.153Z,1.90
2023-03-13T17:27:14.973Z,1.58
2023-03-13T17:29:42.342Z,2.50
2023-03-13T17:32:13.665Z,3.70
2023-03-13T17:34:41.260Z,3.08
2023-03-13T17:37:15.846Z,3.88
2023-03-13T17:39:43.640Z,2.00
2023-03-13T17:42:09.984Z,2.50
2023-03-13T17:44:38.179Z,2.90
2023-03-13T17:47:11.421Z,1.90
2023-03-13T17:49:37.871Z,3.25
2023-03-13T17:52:04.515Z,5.30
2023-03-13T17:54:30.876Z,10.15
2023-03-13T17:56:57.261Z,15.63
2023-03-13T17:59:23.652Z,16.08
2023-03-13T18:01:50.091Z,32.67
2023-03-13T18:04:16.487Z,13.63
2023-03-13T18:06:45.551Z,35.25
2023-03-13T18:09:17.321Z,5.38
2023-03-13T18:11:44.052Z,9.55
2023-03-13T18:14:11.120Z,3.55
2023-03-13T18:16:52.138Z,4.93
2023-03-13T18:19:22.721Z,5.47
2023-03-13T18:21:51.809Z,3.83
2023-03-13T18:24:18.349Z,4.72
2023-03-13T18:26:46.862Z,6.53
2023-03-13T18:29:19.210Z,5.32
2023-03-13T18:31:45.672Z,5.38
2023-03-13T18:34:12.308Z,6.45
2023-03-13T18:36:39.059Z,2.17
2023-03-13T18:39:06.160Z,4.65
2023-03-13T18:41:33.454Z,2.80
2023-03-13T18:44:03.272Z,3.05
2023-03-13T18:46:33.323Z,4.32
2023-03-13T18:49:00.973Z,4.07
2023-03-13T18:51:28.276Z,3.72
2023-03-13T18:53:55.607Z,3.22
2023-03-13T18:56:25.005Z,6.30
2023-03-13T18:58:53.450Z,4.47
2023-03-13T19:01:22.568Z,4.05
2023-03-13T19:03:49.337Z,3.58
2023-03-13T19:06:20.372Z,3.75
2023-03-13T19:08:48.003Z,4.25
2023-03-13T19:11:15.894Z,2.53
2023-03-13T19:13:42.592Z,2.78
2023-03-13T19:16:13.892Z,1.92
2023-03-13T19:18:40.306Z,1.73
2023-03-13T19:21:30.569Z,2.50
2023-03-13T19:23:57.590Z,2.70
2023-03-13T19:26:37.323Z,2.83
2023-03-13T19:29:04.737Z,1.95
2023-03-13T19:31:31.109Z,1.80
2023-03-13T19:33:57.462Z,1.98
2023-03-13T19:36:24.746Z,2.88
2023-03-13T19:38:51.278Z,3.58
2023-03-13T19:41:17.654Z,3.47
2023-03-13T19:43:45.349Z,2.08
2023-03-13T19:46:25.798Z,2.80
2023-03-13T19:49:02.227Z,1.83
2023-03-13T19:51:30.258Z,3.13
2023-03-13T19:53:57.282Z,2.42
2023-03-13T19:56:27.760Z,2.25
2023-03-13T19:59:02.652Z,1.10
2023-03-13T20:01:29.998Z,1.65
2023-03-13T20:03:56.692Z,3.45
2023-03-13T20:06:25.648Z,1.80
2023-03-13T20:08:57.402Z,2.55
2023-03-13T20:11:24.516Z,1.98
2023-03-13T20:13:51.343Z,2.63
2023-03-13T20:16:18.064Z,2.38
2023-03-13T20:18:47.319Z,1.10
2023-03-13T20:21:16.130Z,1.83
2023-03-13T20:23:43.469Z,2.92
2023-03-13T20:26:12.136Z,1.73
2023-03-13T20:28:40.470Z,3.53
2023-03-13T20:31:07.863Z,1.80
2023-03-13T20:33:35.224Z,2.72
2023-03-13T20:36:08.153Z,2.95
2023-03-13T20:38:34.900Z,1.75
2023-03-13T20:41:02.113Z,2.65
2023-03-13T20:43:29.210Z,2.50
2023-03-13T20:45:55.852Z,1.15
2023-03-13T20:48:22.860Z,1.60
2023-03-13T20:50:54.100Z,1.42
2023-03-13T20:53:21.082Z,2.35
2023-03-13T20:55:48.318Z,2.00
2023-03-13T20:58:15.829Z,1.75
2023-03-13T21:00:42.986Z,1.50
2023-03-13T21:03:09.768Z,2.42
2023-03-13T21:05:39.931Z,2.30
2023-03-13T21:08:07.098Z,1.20
2023-03-13T21:10:38.178Z,1.70
2023-03-13T21:13:05.382Z,1.67
2023-03-13T21:15:32.358Z,1.80
2023-03-13T21:17:58.843Z,1.75
2023-03-13T21:20:26.140Z,3.13
2023-03-13T21:22:52.647Z,3.33
2023-03-13T21:25:19.312Z,1.95
2023-03-13T21:27:45.728Z,4.13
2023-03-13T21:30:17.979Z,1.42
2023-03-13T21:32:45.432Z,2.05
2023-03-13T21:35:12.771Z,2.50
2023-03-13T21:37:39.786Z,1.73
2023-03-13T21:40:08.801Z,1.20
2023-03-13T21:42:36.068Z,1.85
2023-03-13T21:45:03.953Z,2.35
2023-03-13T21:47:31.557Z,1.65
2023-03-13T21:50:00.411Z,2.53
2023-03-13T21:52:26.940Z,2.60
2023-03-13T21:54:53.385Z,1.02
2023-03-13T21:57:19.701Z,1.70
2023-03-13T21:59:46.078Z,1.98
2023-03-13T22:02:13.437Z,1.10
2023-03-13T22:04:40.035Z,2.10
2023-03-13T22:07:06.786Z,2.95
2023-03-13T22:09:33.426Z,2.22
2023-03-13T22:11:59.822Z,1.30
2023-03-13T22:14:27.880Z,1.38
2023-03-13T22:16:54.669Z,1.90
2023-03-13T22:19:21.146Z,2.60
2023-03-13T22:21:47.509Z,1.20
2023-03-13T22:24:13.866Z,1.52
2023-03-13T22:26:40.178Z,1.08
2023-03-13T22:29:06.541Z,3.20
2023-03-13T22:31:32.937Z,1.45
2023-03-13T22:33:59.322Z,1.65
2023-03-13T22:36:25.747Z,1.30
2023-03-13T22:38:52.151Z,2.33
2023-03-13T22:41:18.719Z,2.42
2023-03-13T22:43:45.101Z,2.00
2023-03-13T22:46:12.124Z,2.78
2023-03-13T22:48:39.084Z,1.70
2023-03-13T22:51:11.581Z,1.08
2023-03-13T22:53:39.970Z,1.30
2023-03-13T22:56:09.769Z,3.53
2023-03-13T22:58:37.118Z,1.55
2023-03-13T23:01:12.641Z,2.42
2023-03-13T23:03:39.587Z,1.65
2023-03-13T23:06:08.291Z,1.98
2023-03-13T23:08:35.629Z,1.75
2023-03-13T23:11:03.417Z,4.63
2023-03-13T23:13:30.653Z,1.90
2023-03-13T23:15:57.606Z,3.10
2023-03-13T23:18:26.367Z,1.40
2023-03-13T23:20:53.118Z,3.63
2023-03-13T23:23:19.710Z,2.92
2023-03-13T23:25:46.161Z,2.17
2023-03-13T23:28:12.607Z,2.40
2023-03-13T23:30:39.039Z,1.55
2023-03-13T23:33:05.695Z,1.83
2023-03-13T23:35:32.161Z,2.72
2023-03-13T23:37:58.550Z,2.20
2023-03-13T23:40:25.128Z,3.03
2023-03-13T23:42:51.672Z,1.90
2023-03-13T23:45:18.947Z,4.32
2023-03-13T23:47:45.745Z,3.15
2023-03-13T23:50:14.448Z,1.80
2023-03-13T23:52:41.398Z,3.35
2023-03-13T23:55:08.464Z,2.63
2023-03-13T23:57:37.520Z,3.03
